M I D A S
Marine Information and Data Acquisition System
Tripno 1495 of the Zeeleeuw from 2008-05-29 08:08:25 to 2008-05-29 13:25:32
Back to CruiseResearch ActivitiesStationsMapUnderway DataData graphs

EquipmentUnitsComment
TimeDGPSUTC
LatitudeDGPSDM.mWGS84
LongitudeDGPSDM.mWGS84
HeadingGyrodeg 
SOGDGPSknotsSpeed over ground
COGDGPSdegCourse over ground
DepthEcho soundermeters200 kHz
Missing or incorrect values are displayed as -999
Navigation data collected by the RV Zeeleeuw from 2008-05-29 08:10:42 to 2008-05-29 13:32:13
                                                                                    Next 1000 lines
Time Latitude Longitude Heading SOG COG Depth
2008-05-29 08:10:52 51°13.624 2°56.046 118.9 0.6 294 9
2008-05-29 08:10:57 51°13.624 2°56.044 118.9 1 294 -999
2008-05-29 08:11:03 51°13.625 2°56.04 118.9 1.4 297 -999
2008-05-29 08:11:08 51°13.627 2°56.037 119.5 1.8 297 -999
2008-05-29 08:11:13 51°13.628 2°56.033 120.2 2.1 300 9.3
2008-05-29 08:11:18 51°13.63 2°56.028 120.7 2.3 300 -999
2008-05-29 08:11:23 51°13.631 2°56.023 121.1 2.6 301 -999
2008-05-29 08:11:28 51°13.633 2°56.018 120.9 2.9 300 -999
2008-05-29 08:11:33 51°13.635 2°56.012 120.7 3.1 299 -999
2008-05-29 08:11:38 51°13.638 2°56.005 120.4 3.3 300 -999
2008-05-29 08:11:43 51°13.64 2°55.998 120.2 3.6 298 -999
2008-05-29 08:11:48 51°13.643 2°55.99 120.2 3.8 299 -999
2008-05-29 08:11:53 51°13.646 2°55.983 120.3 4.1 298 -999
2008-05-29 08:11:58 51°13.648 2°55.974 120.3 4.2 299 -999
2008-05-29 08:12:03 51°13.651 2°55.966 120 4.4 298 -999
2008-05-29 08:12:08 51°13.654 2°55.957 119.7 4.5 298 -999
2008-05-29 08:12:13 51°13.657 2°55.948 119.3 4.6 298 -999
2008-05-29 08:12:18 51°13.66 2°55.939 119 4.7 298 -999
2008-05-29 08:12:23 51°13.663 2°55.929 118.5 4.8 297 -999
2008-05-29 08:12:28 51°13.667 2°55.92 117.9 4.8 298 -999
2008-05-29 08:12:33 51°13.669 2°55.91 117 4.9 296 -999
2008-05-29 08:12:38 51°13.672 2°55.9 115.8 4.9 296 -999
2008-05-29 08:12:43 51°13.675 2°55.89 114.6 4.9 295 -999
2008-05-29 08:12:48 51°13.678 2°55.881 113.4 4.9 294 -999
2008-05-29 08:12:53 51°13.68 2°55.871 112.2 4.8 292 -999
2008-05-29 08:12:58 51°13.683 2°55.861 111.2 4.6 291 -999
2008-05-29 08:13:03 51°13.685 2°55.852 109.5 4.5 289 -999
2008-05-29 08:13:08 51°13.686 2°55.843 108 4.4 288 -999
2008-05-29 08:13:13 51°13.688 2°55.834 106.5 4.2 286 -999
2008-05-29 08:13:18 51°13.69 2°55.825 104.9 4.1 285 -999
2008-05-29 08:13:23 51°13.691 2°55.817 103.3 3.9 283 -999
2008-05-29 08:13:28 51°13.692 2°55.809 102 3.7 283 -999
2008-05-29 08:13:33 51°13.693 2°55.801 101 3.5 281 -999
2008-05-29 08:13:38 51°13.694 2°55.794 100.5 3.3 281 -999
2008-05-29 08:13:43 51°13.695 2°55.787 99.8 3 280 -999
2008-05-29 08:13:48 51°13.695 2°55.781 99.2 2.8 280 12.8
2008-05-29 08:13:53 51°13.696 2°55.776 98.7 2.5 279 13.2
2008-05-29 08:13:57 51°13.696 2°55.772 98.3 2.2 278 13.8
2008-05-29 08:14:02 51°13.696 2°55.768 97.4 1.9 278 14.1
2008-05-29 08:14:08 51°13.697 2°55.763 94.9 1.6 276 -999
2008-05-29 08:14:13 51°13.697 2°55.76 92.1 1.4 276 -999
2008-05-29 08:14:18 51°13.697 2°55.758 89.2 1.2 275 4.8
2008-05-29 08:14:23 51°13.697 2°55.756 86.5 0.9 274 -999
2008-05-29 08:14:28 51°13.697 2°55.755 83.9 0.7 280 -999
2008-05-29 08:14:33 51°13.697 2°55.754 80.6 0.4 292 -999
2008-05-29 08:14:38 51°13.698 2°55.753 77.7 0.3 320 -999
2008-05-29 08:14:43 51°13.698 2°55.753 74.5 0.2 -999 -999
2008-05-29 08:14:48 51°13.698 2°55.754 71 0.4 31 -999
2008-05-29 08:14:53 51°13.699 2°55.755 67.2 0.6 42 -999
2008-05-29 08:14:58 51°13.7 2°55.756 62.8 0.9 41 -999
2008-05-29 08:15:02 51°13.701 2°55.757 59.2 1 42 4.8
2008-05-29 08:15:07 51°13.702 2°55.759 55.4 1.1 41 5.4
2008-05-29 08:15:12 51°13.703 2°55.76 51.6 1 36 4.7
2008-05-29 08:15:17 51°13.704 2°55.761 48.1 0.9 36 4.7
2008-05-29 08:15:22 51°13.705 2°55.762 44.4 0.5 32 6.6
2008-05-29 08:15:27 51°13.705 2°55.762 41.7 0.2 10 4.7
2008-05-29 08:15:32 51°13.705 2°55.762 39 0.3 229 -999
2008-05-29 08:15:37 51°13.704 2°55.761 36.7 0.7 221 4.7
2008-05-29 08:15:42 51°13.703 2°55.759 34.7 1.1 215 4.8
2008-05-29 08:15:48 51°13.701 2°55.757 33 1.4 215 -999
2008-05-29 08:15:53 51°13.699 2°55.755 31.5 1.6 215 -999
2008-05-29 08:15:58 51°13.697 2°55.753 30.4 1.5 213 5
2008-05-29 08:16:03 51°13.696 2°55.752 29.8 1.2 216 -999
2008-05-29 08:16:08 51°13.695 2°55.751 28.9 0.6 218 -999
2008-05-29 08:16:13 51°13.696 2°55.75 26.3 0.3 288 -999
2008-05-29 08:16:18 51°13.697 2°55.75 22.4 0.7 358 -999
2008-05-29 08:16:23 51°13.698 2°55.75 17.1 1.2 359 -999
2008-05-29 08:16:28 51°13.701 2°55.75 10.6 2.1 359 -999
2008-05-29 08:16:33 51°13.705 2°55.749 2.6 2.8 350 -999
2008-05-29 08:16:38 51°13.71 2°55.746 356.3 3.4 346 5.1
2008-05-29 08:16:42 51°13.714 2°55.744 350.5 4.1 341 5
2008-05-29 08:16:47 51°13.72 2°55.74 345.4 4.8 337 14.6
2008-05-29 08:16:53 51°13.728 2°55.733 340.2 5.5 333 14.3
2008-05-29 08:16:58 51°13.736 2°55.727 336.8 5.9 333 13.2
2008-05-29 08:17:02 51°13.742 2°55.721 335.2 6.3 329 12.3
2008-05-29 08:17:07 51°13.75 2°55.713 332.8 6.7 328 12.1
2008-05-29 08:17:12 51°13.757 2°55.705 330.8 6.7 327 11.9
2008-05-29 08:17:17 51°13.765 2°55.697 329.6 6.6 327 11.8
2008-05-29 08:17:22 51°13.773 2°55.689 329.3 6.6 326 11.7
2008-05-29 08:17:27 51°13.78 2°55.681 328.9 6.6 327 11.6
2008-05-29 08:17:31 51°13.786 2°55.674 328.8 6.5 327 11.5
2008-05-29 08:17:36 51°13.794 2°55.667 329.2 6.5 328 12
2008-05-29 08:17:41 51°13.802 2°55.659 330.1 6.4 329 11.9
2008-05-29 08:17:46 51°13.809 2°55.652 330.9 6.4 330 11.8
2008-05-29 08:17:51 51°13.817 2°55.645 331.8 6.4 330 11.7
2008-05-29 08:17:56 51°13.825 2°55.639 332.6 6.3 331 12
2008-05-29 08:18:01 51°13.833 2°55.632 333.3 6.3 332 12.1
2008-05-29 08:18:05 51°13.839 2°55.627 334 6.3 332 12.1
2008-05-29 08:18:10 51°13.847 2°55.621 334.4 6.3 333 12.2
2008-05-29 08:18:15 51°13.854 2°55.614 335.2 6.3 334 12.3
2008-05-29 08:18:20 51°13.862 2°55.608 336 6.2 335 12.2
2008-05-29 08:18:25 51°13.87 2°55.603 337.2 6.2 336 12.2
2008-05-29 08:18:30 51°13.878 2°55.597 338.1 6.2 336 12.2
2008-05-29 08:18:34 51°13.884 2°55.593 339.3 6.2 337 12.1
2008-05-29 08:18:39 51°13.892 2°55.587 340.4 6.2 338 12.1
2008-05-29 08:18:45 51°13.902 2°55.581 341.2 6.2 338 12.3
2008-05-29 08:18:49 51°13.908 2°55.577 341.3 6.1 338 12.4
2008-05-29 08:18:54 51°13.916 2°55.572 341.3 6.1 338 12.1
2008-05-29 08:18:59 51°13.924 2°55.567 341.3 6.1 338 12.1
2008-05-29 08:19:05 51°13.933 2°55.561 341.5 6.1 339 12.1
2008-05-29 08:19:09 51°13.94 2°55.557 341.8 6.1 339 12.1
2008-05-29 08:19:14 51°13.947 2°55.553 342 6.1 339 12.1
2008-05-29 08:19:19 51°13.955 2°55.548 341.9 6.1 338 12
2008-05-29 08:19:25 51°13.965 2°55.541 341.3 6.1 338 12.1
2008-05-29 08:19:29 51°13.971 2°55.537 340.4 6.1 337 12.1
2008-05-29 08:19:34 51°13.978 2°55.532 339.8 6 337 12.1
2008-05-29 08:19:39 51°13.986 2°55.527 339.6 5.9 337 12.1
2008-05-29 08:19:45 51°13.994 2°55.521 339.6 5.7 336 12.1
2008-05-29 08:19:49 51°14 2°55.517 339.6 5.5 336 12.1
2008-05-29 08:19:54 51°14.007 2°55.512 339.5 5.3 336 12.1
2008-05-29 08:19:59 51°14.013 2°55.508 339.3 5.2 336 12.1
2008-05-29 08:20:05 51°14.021 2°55.502 339.2 5.1 336 12.1
2008-05-29 08:20:09 51°14.026 2°55.499 339.4 4.9 337 12.1
2008-05-29 08:20:14 51°14.032 2°55.494 339.8 4.8 337 12
2008-05-29 08:20:19 51°14.038 2°55.49 340.1 4.8 337 12.1
2008-05-29 08:20:25 51°14.046 2°55.486 340.2 4.6 337 12.1
2008-05-29 08:20:29 51°14.05 2°55.483 340.1 4.6 337 12.5
2008-05-29 08:20:34 51°14.056 2°55.479 339.9 4.5 337 12.2
2008-05-29 08:20:39 51°14.062 2°55.475 339.8 4.4 337 -999
2008-05-29 08:20:45 51°14.068 2°55.47 339.6 4.4 337 12.1
2008-05-29 08:20:50 51°14.074 2°55.466 339.2 4.3 337 -999
2008-05-29 08:20:55 51°14.08 2°55.462 338.9 4.3 336 12.1
2008-05-29 08:21:00 51°14.085 2°55.459 338.6 4.2 335 -999
2008-05-29 08:21:05 51°14.091 2°55.455 338.1 4.2 335 -999
2008-05-29 08:21:10 51°14.096 2°55.451 337.6 4.1 334 -999
2008-05-29 08:21:15 51°14.101 2°55.447 337.4 4.1 335 12.1
2008-05-29 08:21:20 51°14.106 2°55.443 337.6 4.1 335 12.1
2008-05-29 08:21:25 51°14.111 2°55.439 338.1 4.1 336 12.5
2008-05-29 08:21:30 51°14.116 2°55.435 338.8 4 335 12.1
2008-05-29 08:21:35 51°14.121 2°55.432 338.9 4 336 -999
2008-05-29 08:21:41 51°14.127 2°55.427 339.1 4 336 -999
2008-05-29 08:21:46 51°14.132 2°55.424 339 4.2 336 -999
2008-05-29 08:21:52 51°14.139 2°55.419 338.7 4.5 336 -999
2008-05-29 08:21:58 51°14.146 2°55.413 338.5 4.8 335 -999
2008-05-29 08:22:03 51°14.153 2°55.409 338.2 5.1 335 12.2
2008-05-29 08:22:08 51°14.16 2°55.404 338 5.3 335 12.2
2008-05-29 08:22:13 51°14.167 2°55.398 337.7 5.6 334 12.1
2008-05-29 08:22:17 51°14.173 2°55.393 337.4 5.8 334 12.1
2008-05-29 08:22:22 51°14.181 2°55.387 337.2 6 334 12.1
2008-05-29 08:22:28 51°14.19 2°55.38 336.9 6.1 333 -999
2008-05-29 08:22:33 51°14.197 2°55.374 336.3 6.1 333 12.2
2008-05-29 08:22:37 51°14.203 2°55.369 335.5 6.1 332 12.6
2008-05-29 08:22:42 51°14.211 2°55.363 335 6 331 12.2
2008-05-29 08:22:48 51°14.219 2°55.355 333.8 5.9 329 11.9
2008-05-29 08:22:52 51°14.224 2°55.349 331.9 5.8 326 12
2008-05-29 08:22:57 51°14.231 2°55.341 328.9 5.7 323 11.8
2008-05-29 08:23:02 51°14.236 2°55.333 325.5 5.7 320 11.7
2008-05-29 08:23:07 51°14.242 2°55.324 321.7 5.6 317 12
2008-05-29 08:23:12 51°14.247 2°55.315 318.4 5.6 314 12
2008-05-29 08:23:17 51°14.253 2°55.305 315.6 5.8 312 12.5
2008-05-29 08:23:21 51°14.257 2°55.297 313.5 6 309 12.5
2008-05-29 08:23:26 51°14.262 2°55.286 311.8 6.3 309 12.4
2008-05-29 08:23:31 51°14.268 2°55.274 310.8 6.6 307 12.1
2008-05-29 08:23:36 51°14.274 2°55.262 309.8 7 306 12.3
2008-05-29 08:23:41 51°14.28 2°55.248 308.8 7.4 305 12.6
2008-05-29 08:23:46 51°14.286 2°55.234 307.3 7.6 305 -999
2008-05-29 08:23:52 51°14.293 2°55.216 306 8 303 -999
2008-05-29 08:23:57 51°14.3 2°55.201 305.5 8.3 304 -999
2008-05-29 08:24:02 51°14.306 2°55.186 306.4 8.4 305 12.2
2008-05-29 08:24:07 51°14.313 2°55.17 307.3 8.6 304 12.1
2008-05-29 08:24:11 51°14.319 2°55.157 307.4 8.9 304 12.1
2008-05-29 08:24:16 51°14.325 2°55.14 306.8 9.2 302 12.2
2008-05-29 08:24:21 51°14.332 2°55.122 305.4 9.5 301 12.4
2008-05-29 08:24:26 51°14.339 2°55.103 303.6 9.8 299 12.3
2008-05-29 08:24:31 51°14.345 2°55.083 301.3 10.1 297 12.4
2008-05-29 08:24:36 51°14.351 2°55.062 299.3 10.3 296 12.3
2008-05-29 08:24:41 51°14.358 2°55.041 298.2 10.6 296 12.3
2008-05-29 08:24:45 51°14.363 2°55.024 297.9 10.8 296 11.9
2008-05-29 08:24:50 51°14.37 2°55.002 298.1 11 296 11.8
2008-05-29 08:24:55 51°14.377 2°54.98 298 11.2 297 12.2
2008-05-29 08:25:00 51°14.384 2°54.958 298.3 11.2 297 12.1
2008-05-29 08:25:05 51°14.391 2°54.936 298.9 11.3 297 12.1
2008-05-29 08:25:10 51°14.398 2°54.913 298.5 11.5 296 12.1
2008-05-29 08:25:14 51°14.403 2°54.895 297.6 11.6 296 12.1
2008-05-29 08:25:19 51°14.41 2°54.871 297.1 11.7 295 12.4
2008-05-29 08:25:24 51°14.418 2°54.848 296.8 11.9 296 12.2
2008-05-29 08:25:29 51°14.425 2°54.824 297.8 12 298 12.5
2008-05-29 08:25:34 51°14.433 2°54.801 298.2 12 298 12.3
2008-05-29 08:25:39 51°14.441 2°54.778 298.6 12.1 300 12.1
2008-05-29 08:25:45 51°14.452 2°54.751 299.3 12 300 12.8
2008-05-29 08:25:49 51°14.457 2°54.732 298.9 12 298 12.2
2008-05-29 08:25:54 51°14.466 2°54.71 298.2 12 300 12.4
2008-05-29 08:25:59 51°14.474 2°54.687 298.9 12 300 12.3
2008-05-29 08:26:04 51°14.482 2°54.664 298.6 11.9 299 12
2008-05-29 08:26:09 51°14.49 2°54.64 298.1 12 298 12.2
2008-05-29 08:26:14 51°14.498 2°54.618 298.2 12 301 12.1
2008-05-29 08:26:19 51°14.506 2°54.595 298.9 12 299 12.7
2008-05-29 08:26:24 51°14.515 2°54.572 299.1 12 301 12.6
2008-05-29 08:26:29 51°14.522 2°54.549 297.8 12 296 12.7
2008-05-29 08:26:34 51°14.53 2°54.525 296.8 12.1 300 12.2
2008-05-29 08:26:39 51°14.538 2°54.501 296.5 12.1 296 12.3
2008-05-29 08:26:44 51°14.545 2°54.477 296 12.1 298 12.6
2008-05-29 08:26:49 51°14.553 2°54.454 296.7 12.2 298 12.3
2008-05-29 08:26:54 51°14.561 2°54.43 296.6 12.2 297 13
2008-05-29 08:26:59 51°14.569 2°54.405 296.1 12.1 297 12.4
2008-05-29 08:27:05 51°14.578 2°54.377 295.8 12.1 298 12.2
2008-05-29 08:27:09 51°14.584 2°54.358 296 12.1 297 12.7
2008-05-29 08:27:14 51°14.592 2°54.334 296.1 12.1 298 12.4
2008-05-29 08:27:19 51°14.599 2°54.31 296.2 12.1 296 12.4
2008-05-29 08:27:25 51°14.609 2°54.282 296 12.3 299 12.5
2008-05-29 08:27:29 51°14.615 2°54.262 296.7 12.2 297 12.5
2008-05-29 08:27:34 51°14.622 2°54.238 296.6 12.2 298 12.6
2008-05-29 08:27:39 51°14.63 2°54.214 296.4 12.2 296 13
2008-05-29 08:27:45 51°14.639 2°54.186 296.5 12.2 298 12.7
2008-05-29 08:27:49 51°14.645 2°54.166 295.8 12.1 294 12.8
2008-05-29 08:27:54 51°14.651 2°54.141 293.9 12.2 294 12.9
2008-05-29 08:27:59 51°14.657 2°54.116 290.7 12.1 290 12.7
2008-05-29 08:28:05 51°14.664 2°54.086 289.8 12.1 290 12.6
2008-05-29 08:28:09 51°14.667 2°54.065 287.5 12.1 287 12.7
2008-05-29 08:28:14 51°14.672 2°54.039 286.4 12.2 286 12.6
2008-05-29 08:28:19 51°14.677 2°54.013 285.5 12.1 286 12.7
2008-05-29 08:28:24 51°14.681 2°53.987 284.6 12.1 284 12.6
2008-05-29 08:28:29 51°14.685 2°53.961 284.2 12.2 286 13.2
2008-05-29 08:28:34 51°14.689 2°53.935 283.8 12.2 284 12.5
2008-05-29 08:28:39 51°14.694 2°53.909 283.1 12.1 285 12.5
2008-05-29 08:28:44 51°14.698 2°53.883 283.1 12.1 285 12.4
2008-05-29 08:28:49 51°14.702 2°53.857 283 12 283 12.6
2008-05-29 08:28:54 51°14.706 2°53.831 282.4 12.1 285 12.6
2008-05-29 08:28:59 51°14.71 2°53.805 282.3 12.1 284 12.4
2008-05-29 08:29:04 51°14.715 2°53.78 282.9 12.1 287 11.8
2008-05-29 08:29:09 51°14.719 2°53.754 284.1 12.1 286 11.9
2008-05-29 08:29:14 51°14.724 2°53.729 284.7 12.1 288 12.1
2008-05-29 08:29:19 51°14.729 2°53.703 285.4 12.1 286 12.3
2008-05-29 08:29:25 51°14.736 2°53.672 285.7 12.1 288 12
2008-05-29 08:29:29 51°14.739 2°53.652 286.5 12.1 287 11.7
2008-05-29 08:29:34 51°14.745 2°53.626 286.3 12.1 288 12
2008-05-29 08:29:39 51°14.749 2°53.6 286.2 12.2 286 11.8
2008-05-29 08:29:45 51°14.755 2°53.57 285.8 12.2 288 11.7
2008-05-29 08:29:49 51°14.759 2°53.549 285.9 12.2 286 12
2008-05-29 08:29:54 51°14.764 2°53.523 286 12.2 287 12.1
2008-05-29 08:29:59 51°14.769 2°53.497 286.3 12.2 287 12
2008-05-29 08:30:05 51°14.774 2°53.466 286.2 12.2 286 12.1
2008-05-29 08:30:09 51°14.778 2°53.445 285.9 12.3 286 12.1
2008-05-29 08:30:14 51°14.783 2°53.419 286.4 12.2 286 12.1
2008-05-29 08:30:19 51°14.787 2°53.393 286.1 12.2 286 12.1
2008-05-29 08:30:25 51°14.793 2°53.361 285.4 12.2 285 12.2
2008-05-29 08:30:29 51°14.796 2°53.34 284.5 12.3 284 12.4
2008-05-29 08:30:34 51°14.8 2°53.314 283.8 12.2 285 12.6
2008-05-29 08:30:39 51°14.805 2°53.288 284.3 12.2 285 12
2008-05-29 08:30:45 51°14.81 2°53.257 285.1 12.2 286 11.9
2008-05-29 08:30:49 51°14.814 2°53.236 285.3 12.3 286 11.9
2008-05-29 08:30:54 51°14.818 2°53.21 286.2 12.3 286 12
2008-05-29 08:31:00 51°14.824 2°53.179 286 12.3 285 11.8
2008-05-29 08:31:04 51°14.828 2°53.158 286.4 12.3 288 11.8
2008-05-29 08:31:09 51°14.833 2°53.132 286.7 12.3 286 11.9
2008-05-29 08:31:14 51°14.838 2°53.106 286.7 12.3 287 11.8
2008-05-29 08:31:19 51°14.842 2°53.079 286.3 12.3 285 11.8
2008-05-29 08:31:24 51°14.847 2°53.054 285.3 12.3 285 11.8
2008-05-29 08:31:29 51°14.85 2°53.027 284.4 12.3 283 11.8
2008-05-29 08:31:34 51°14.854 2°53 283.5 12.3 283 11.8
2008-05-29 08:31:40 51°14.859 2°52.968 282.2 12.3 282 11.8
2008-05-29 08:31:44 51°14.861 2°52.947 281 12.3 280 11.7
2008-05-29 08:31:49 51°14.864 2°52.92 280.1 12.3 281 11.7
2008-05-29 08:31:54 51°14.868 2°52.893 280.4 12.3 281 11.8
2008-05-29 08:31:59 51°14.87 2°52.866 280.1 12.3 278 11.7
2008-05-29 08:32:05 51°14.873 2°52.834 279.2 12.3 279 11.6
2008-05-29 08:32:09 51°14.876 2°52.813 278.6 12.3 280 11.5
2008-05-29 08:32:14 51°14.878 2°52.786 278.6 12.3 277 11.6
2008-05-29 08:32:19 51°14.881 2°52.759 278.5 12.3 280 11.6
2008-05-29 08:32:24 51°14.884 2°52.732 279.3 12.3 279 11.7
2008-05-29 08:32:29 51°14.887 2°52.705 278.6 12.4 280 11.6
2008-05-29 08:32:34 51°14.891 2°52.678 279.6 12.4 281 11.7
2008-05-29 08:32:39 51°14.893 2°52.651 280.1 12.4 280 11.7
2008-05-29 08:32:45 51°14.897 2°52.619 280.1 12.4 281 11.7
2008-05-29 08:32:49 51°14.9 2°52.597 279.4 12.4 280 11.7
2008-05-29 08:32:54 51°14.903 2°52.57 279 12.4 279 11.7
2008-05-29 08:32:59 51°14.905 2°52.543 278.7 12.4 280 11.7
2008-05-29 08:33:04 51°14.909 2°52.516 279.2 12.4 281 11.8
2008-05-29 08:33:09 51°14.912 2°52.489 280.1 12.4 281 11.7
2008-05-29 08:33:14 51°14.916 2°52.462 280.9 12.4 282 11.7
2008-05-29 08:33:19 51°14.919 2°52.435 281.2 12.5 281 11.8
2008-05-29 08:33:24 51°14.923 2°52.408 281 12.5 282 11.9
2008-05-29 08:33:29 51°14.926 2°52.381 280.6 12.4 281 11.8
2008-05-29 08:33:34 51°14.93 2°52.354 280.1 12.4 282 11.7
2008-05-29 08:33:39 51°14.932 2°52.327 279.7 12.4 280 11.8
2008-05-29 08:33:45 51°14.937 2°52.295 279.4 12.4 282 11.9
2008-05-29 08:33:49 51°14.939 2°52.274 279.8 12.3 280 12
2008-05-29 08:33:54 51°14.942 2°52.247 279.3 12.3 281 12
2008-05-29 08:33:59 51°14.945 2°52.22 279.1 12.3 280 12
2008-05-29 08:34:04 51°14.948 2°52.193 279.3 12.3 281 12.1
2008-05-29 08:34:09 51°14.952 2°52.166 279.3 12.3 281 12.1
2008-05-29 08:34:14 51°14.955 2°52.14 279.3 12.3 281 12.1
2008-05-29 08:34:19 51°14.958 2°52.113 279.7 12.3 281 12.2
2008-05-29 08:34:25 51°14.962 2°52.081 279.4 12.3 281 12.2
2008-05-29 08:34:29 51°14.965 2°52.06 279.3 12.3 282 12.3
2008-05-29 08:34:34 51°14.968 2°52.033 279.5 12.2 280 12.2
2008-05-29 08:34:39 51°14.971 2°52.007 279.5 12.3 282 12.4
2008-05-29 08:34:44 51°14.975 2°51.98 279.9 12.3 280 12.5
2008-05-29 08:34:49 51°14.978 2°51.953 279.6 12.3 281 12.4
2008-05-29 08:34:54 51°14.981 2°51.927 279.9 12.3 281 12.3
2008-05-29 08:34:59 51°14.985 2°51.9 279.6 12.3 281 12.5
2008-05-29 08:35:04 51°14.988 2°51.873 280.1 12.3 282 12.7
2008-05-29 08:35:09 51°14.992 2°51.847 281.3 12.3 284 12.7
2008-05-29 08:35:14 51°14.996 2°51.821 282 12.2 282 12.9
2008-05-29 08:35:19 51°15 2°51.795 282.5 12.3 285 12.8
2008-05-29 08:35:24 51°15.004 2°51.768 283.3 12.3 283 12.8
2008-05-29 08:35:29 51°15.008 2°51.742 282.7 12.3 284 12.8
2008-05-29 08:35:34 51°15.012 2°51.716 282.2 12.2 283 12.9
2008-05-29 08:35:39 51°15.016 2°51.689 281.5 12.2 282 12.9
2008-05-29 08:35:45 51°15.021 2°51.657 281.5 12.3 284 13
2008-05-29 08:35:49 51°15.024 2°51.636 282.2 12.2 283 13.1
2008-05-29 08:35:54 51°15.028 2°51.61 283 12.2 284 13
2008-05-29 08:35:59 51°15.032 2°51.584 282.5 12.2 284 13
2008-05-29 08:36:05 51°15.037 2°51.553 282.9 12.2 284 13.1
2008-05-29 08:36:09 51°15.04 2°51.532 282.8 12.1 283 13.2
2008-05-29 08:36:14 51°15.044 2°51.505 281.9 12.2 282 13.3
2008-05-29 08:36:19 51°15.047 2°51.479 281.2 12.2 282 13.3
2008-05-29 08:36:24 51°15.05 2°51.453 280.6 12.2 281 13.3
2008-05-29 08:36:29 51°15.054 2°51.426 280.3 12.2 281 13.4
2008-05-29 08:36:34 51°15.057 2°51.4 280.1 12.2 283 13.4
2008-05-29 08:36:39 51°15.061 2°51.374 280.6 12.1 282 13.5
2008-05-29 08:36:45 51°15.065 2°51.343 281.1 12.1 284 13.4
2008-05-29 08:36:49 51°15.068 2°51.322 281.6 12.1 283 13.5
2008-05-29 08:36:54 51°15.072 2°51.296 281.5 12.1 284 13.5
2008-05-29 08:36:59 51°15.076 2°51.27 282.8 12.1 283 13.5
2008-05-29 08:37:05 51°15.082 2°51.239 283.2 12.2 285 13.5
2008-05-29 08:37:09 51°15.085 2°51.218 282.9 12.2 283 13.5
2008-05-29 08:37:14 51°15.089 2°51.191 282.8 12.2 285 13.7
2008-05-29 08:37:19 51°15.094 2°51.165 283.9 12.2 285 13.6
2008-05-29 08:37:24 51°15.098 2°51.139 283.7 12.2 284 13.7
2008-05-29 08:37:29 51°15.102 2°51.113 283.9 12.3 285 13.7
2008-05-29 08:37:34 51°15.107 2°51.087 283.9 12.3 286 13.7
2008-05-29 08:37:39 51°15.112 2°51.061 284.2 12.3 286 13.8
2008-05-29 08:37:44 51°15.117 2°51.035 285 12.3 287 13.8
2008-05-29 08:37:49 51°15.121 2°51.009 284.9 12.2 286 13.8
2008-05-29 08:37:54 51°15.126 2°50.983 285.1 12.2 287 13.8
2008-05-29 08:37:59 51°15.131 2°50.957 285.2 12.3 286 13.9
2008-05-29 08:38:05 51°15.137 2°50.926 284.5 12.2 286 13.9
2008-05-29 08:38:09 51°15.14 2°50.905 284.4 12.2 285 13.9
2008-05-29 08:38:14 51°15.145 2°50.879 283.8 12.3 286 13.9
2008-05-29 08:38:19 51°15.149 2°50.853 283.3 12.2 284 13.9
2008-05-29 08:38:25 51°15.154 2°50.822 282.8 12.2 284 14
2008-05-29 08:38:29 51°15.158 2°50.801 282.3 12.2 284 14
2008-05-29 08:38:34 51°15.161 2°50.774 281.7 12.2 283 13.9
2008-05-29 08:38:39 51°15.166 2°50.748 281.9 12.3 285 13.9
2008-05-29 08:38:45 51°15.17 2°50.716 282.4 12.3 283 14
2008-05-29 08:38:49 51°15.175 2°50.695 283.1 12.3 287 14.1
2008-05-29 08:38:54 51°15.179 2°50.669 283.5 12.2 285 14.2
2008-05-29 08:38:59 51°15.184 2°50.643 284.3 12.3 286 14.1
2008-05-29 08:39:05 51°15.189 2°50.612 283.8 12.3 285 14.1
2008-05-29 08:39:09 51°15.193 2°50.591 284.2 12.3 286 14.1
2008-05-29 08:39:14 51°15.198 2°50.565 284.3 12.3 287 14
2008-05-29 08:39:19 51°15.202 2°50.539 285.1 12.3 286 14.2
2008-05-29 08:39:25 51°15.207 2°50.507 284.6 12.2 284 14.3
2008-05-29 08:39:29 51°15.211 2°50.486 283.2 12.2 284 14.1
2008-05-29 08:39:34 51°15.215 2°50.46 283.1 12.2 284 14.2
2008-05-29 08:39:39 51°15.219 2°50.434 283.4 12.2 285 14.2
2008-05-29 08:39:44 51°15.224 2°50.408 284 12.2 286 14.2
2008-05-29 08:39:49 51°15.228 2°50.382 284.6 12.2 285 14.2
2008-05-29 08:39:54 51°15.233 2°50.356 284.5 12.2 285 14.2
2008-05-29 08:39:59 51°15.237 2°50.33 284.5 12.2 285 14.2
2008-05-29 08:40:04 51°15.242 2°50.304 284.6 12.2 286 14.2
2008-05-29 08:40:09 51°15.247 2°50.278 285 12.3 286 14.2
2008-05-29 08:40:14 51°15.251 2°50.252 285.1 12.3 285 14.2
2008-05-29 08:40:19 51°15.255 2°50.225 283.6 12.3 285 14.3
2008-05-29 08:40:24 51°15.259 2°50.199 283.3 12.3 283 14.3
2008-05-29 08:40:29 51°15.263 2°50.172 282.1 12.3 282 14.3
2008-05-29 08:40:34 51°15.266 2°50.145 281.5 12.4 282 14.2
2008-05-29 08:40:39 51°15.27 2°50.119 281.8 12.4 282 14.4
2008-05-29 08:40:45 51°15.275 2°50.087 281.8 12.4 284 14.4
2008-05-29 08:40:49 51°15.279 2°50.066 283 12.4 285 14.3
2008-05-29 08:40:54 51°15.283 2°50.039 283.5 12.4 284 14.4
2008-05-29 08:40:59 51°15.287 2°50.012 283 12.4 284 14.3
2008-05-29 08:41:05 51°15.291 2°49.98 282.2 12.3 283 14.3
2008-05-29 08:41:09 51°15.295 2°49.959 282.2 12.4 284 14.4
2008-05-29 08:41:14 51°15.298 2°49.932 281.9 12.3 282 14.4
2008-05-29 08:41:19 51°15.302 2°49.906 281.5 12.4 283 14.3
2008-05-29 08:41:24 51°15.306 2°49.879 281.6 12.4 284 14.3
2008-05-29 08:41:29 51°15.31 2°49.852 282 12.4 284 14.2
2008-05-29 08:41:34 51°15.314 2°49.826 282.6 12.4 283 14.1
2008-05-29 08:41:39 51°15.318 2°49.799 282.4 12.4 284 14.4
2008-05-29 08:41:44 51°15.323 2°49.772 282.5 12.4 284 14.6
2008-05-29 08:41:49 51°15.327 2°49.746 283.3 12.4 284 14.6
2008-05-29 08:41:54 51°15.331 2°49.719 283 12.4 284 14.6
2008-05-29 08:41:59 51°15.336 2°49.693 283.7 12.4 286 14.5
2008-05-29 08:42:04 51°15.34 2°49.667 283.6 12.3 284 14.4
2008-05-29 08:42:09 51°15.344 2°49.64 283 12.3 285 14.5
2008-05-29 08:42:14 51°15.348 2°49.614 282.4 12.3 283 14.5
2008-05-29 08:42:19 51°15.353 2°49.588 283.2 12.3 287 14.5
2008-05-29 08:42:25 51°15.359 2°49.556 283.9 12.3 286 14.5
2008-05-29 08:42:29 51°15.363 2°49.536 285.3 12.4 288 14.5
2008-05-29 08:42:34 51°15.368 2°49.509 285.1 12.3 287 14.5
2008-05-29 08:42:39 51°15.373 2°49.483 285.7 12.3 288 14.5
2008-05-29 08:42:44 51°15.378 2°49.457 285.9 12.3 288 14.5
2008-05-29 08:42:49 51°15.384 2°49.431 286 12.4 288 14.7
2008-05-29 08:42:54 51°15.389 2°49.405 286 12.4 287 14.6
2008-05-29 08:42:59 51°15.393 2°49.379 285.7 12.3 286 14.5
2008-05-29 08:43:05 51°15.399 2°49.347 284.9 12.3 287 14.5
2008-05-29 08:43:09 51°15.403 2°49.326 285.1 12.3 285 14.6
2008-05-29 08:43:14 51°15.408 2°49.3 284.8 12.3 287 14.6
2008-05-29 08:43:19 51°15.412 2°49.274 284.9 12.3 286 14.5
2008-05-29 08:43:25 51°15.418 2°49.243 285.3 12.3 288 14.6
2008-05-29 08:43:29 51°15.422 2°49.222 285.9 12.3 286 14.6
2008-05-29 08:43:34 51°15.427 2°49.196 285.9 12.2 287 14.6
2008-05-29 08:43:39 51°15.432 2°49.17 285.5 12.2 286 14.5
2008-05-29 08:43:44 51°15.437 2°49.145 285.5 12.2 287 14.5
2008-05-29 08:43:49 51°15.441 2°49.118 285.1 12.3 286 14.4
2008-05-29 08:43:54 51°15.446 2°49.092 285.3 12.3 287 14.4
2008-05-29 08:43:59 51°15.451 2°49.066 285.8 12.2 287 14.4
2008-05-29 08:44:04 51°15.456 2°49.04 286.2 12.3 287 14.2
2008-05-29 08:44:09 51°15.462 2°49.015 287.2 12.3 288 14.1
2008-05-29 08:44:14 51°15.466 2°48.988 286.9 12.3 287 13.9
2008-05-29 08:44:19 51°15.472 2°48.962 286.6 12.4 288 13.8
2008-05-29 08:44:25 51°15.478 2°48.931 286.7 12.3 287 13.5
2008-05-29 08:44:29 51°15.483 2°48.911 287.5 12.3 289 13.2
2008-05-29 08:44:34 51°15.488 2°48.885 287.8 12.3 289 13.1
2008-05-29 08:44:39 51°15.493 2°48.859 288.2 12.3 288 12.8
2008-05-29 08:44:45 51°15.5 2°48.828 288.3 12.4 290 12.6
2008-05-29 08:44:49 51°15.504 2°48.807 288.8 12.4 289 12.5
2008-05-29 08:44:54 51°15.51 2°48.782 289 12.4 290 12.3
2008-05-29 08:44:59 51°15.516 2°48.756 289.3 12.4 289 12.3
2008-05-29 08:45:04 51°15.522 2°48.73 288.9 12.4 290 12.1
2008-05-29 08:45:09 51°15.527 2°48.704 288.8 12.4 289 12
2008-05-29 08:45:14 51°15.533 2°48.678 288.8 12.4 290 12
2008-05-29 08:45:19 51°15.538 2°48.652 288.4 12.4 288 11.9
2008-05-29 08:45:24 51°15.544 2°48.626 288.1 12.4 290 11.9
2008-05-29 08:45:29 51°15.55 2°48.6 288.7 12.5 290 12
2008-05-29 08:45:34 51°15.555 2°48.575 289 12.4 289 11.9
2008-05-29 08:45:39 51°15.561 2°48.549 288.5 12.4 288 12
2008-05-29 08:45:45 51°15.568 2°48.517 288.2 12.5 289 12
2008-05-29 08:45:49 51°15.572 2°48.496 288 12.5 288 12
2008-05-29 08:45:54 51°15.577 2°48.47 287.5 12.5 288 12
2008-05-29 08:45:59 51°15.583 2°48.444 287.5 12.4 288 12.1
2008-05-29 08:46:04 51°15.588 2°48.418 287.6 12.5 288 12.1
2008-05-29 08:46:09 51°15.594 2°48.392 287.8 12.4 288 12.2
2008-05-29 08:46:14 51°15.599 2°48.366 287.7 12.4 288 12.2
2008-05-29 08:46:19 51°15.605 2°48.339 287.6 12.4 289 12.3
2008-05-29 08:46:25 51°15.611 2°48.308 287.9 12.4 289 12.3
2008-05-29 08:46:29 51°15.616 2°48.288 288.1 12.4 289 12.6
2008-05-29 08:46:34 51°15.621 2°48.261 288 12.4 288 12.6
2008-05-29 08:46:39 51°15.626 2°48.235 287.1 12.4 287 12.7
2008-05-29 08:46:44 51°15.632 2°48.21 286.8 12.3 289 12.7
2008-05-29 08:46:49 51°15.637 2°48.184 287 12.3 288 12.9
2008-05-29 08:46:54 51°15.642 2°48.158 287.4 12.3 289 13
2008-05-29 08:46:59 51°15.648 2°48.132 287.8 12.3 289 13.1
2008-05-29 08:47:05 51°15.655 2°48.101 287.9 12.3 288 13.2
2008-05-29 08:47:09 51°15.659 2°48.081 287.8 12.3 289 13.3
2008-05-29 08:47:14 51°15.665 2°48.055 287.8 12.3 289 13.5
2008-05-29 08:47:20 51°15.671 2°48.024 287.9 12.2 289 13.7
2008-05-29 08:47:25 51°15.677 2°47.998 287.3 12.3 288 13.8
2008-05-29 08:47:29 51°15.681 2°47.978 287.6 12.2 289 14
2008-05-29 08:47:34 51°15.686 2°47.952 287.4 12.2 288 14.1
2008-05-29 08:47:39 51°15.692 2°47.927 287.5 12.2 289 14.3
2008-05-29 08:47:44 51°15.697 2°47.901 286.2 12.2 287 14.4
2008-05-29 08:47:49 51°15.702 2°47.876 285.7 12.2 288 14.5
2008-05-29 08:47:54 51°15.707 2°47.85 286.2 12.1 288 14.7
2008-05-29 08:47:59 51°15.713 2°47.824 286.5 12.2 288 14.8
2008-05-29 08:48:05 51°15.719 2°47.794 286.4 12.1 289 15
2008-05-29 08:48:09 51°15.723 2°47.774 286.9 12.1 288 15.3
2008-05-29 08:48:14 51°15.729 2°47.748 287 12.2 289 15.5
2008-05-29 08:48:19 51°15.734 2°47.723 287.3 12.1 289 15.5
2008-05-29 08:48:25 51°15.741 2°47.692 287.3 12.1 290 15.7
2008-05-29 08:48:29 51°15.746 2°47.672 288.4 12.1 291 15.8
2008-05-29 08:48:34 51°15.752 2°47.647 288.7 12.2 290 16
2008-05-29 08:48:39 51°15.758 2°47.622 289.3 12.2 292 16.1
2008-05-29 08:48:44 51°15.764 2°47.597 289.8 12.2 292 16.1
2008-05-29 08:48:49 51°15.771 2°47.572 290.2 12.2 293 16.2
2008-05-29 08:48:54 51°15.777 2°47.547 290.7 12.2 293 16.3
2008-05-29 08:48:59 51°15.784 2°47.522 290.6 12.3 292 16.4
2008-05-29 08:49:04 51°15.791 2°47.497 290.6 12.3 294 16.5
2008-05-29 08:49:09 51°15.797 2°47.472 291 12.3 292 16.6
2008-05-29 08:49:14 51°15.803 2°47.447 290.1 12.3 292 16.7
2008-05-29 08:49:19 51°15.81 2°47.421 289.9 12.4 293 16.8
2008-05-29 08:49:24 51°15.816 2°47.396 290.3 12.3 293 16.9
2008-05-29 08:49:29 51°15.822 2°47.371 290.5 12.2 290 17
2008-05-29 08:49:34 51°15.829 2°47.346 290 12.3 294 17.3
2008-05-29 08:49:39 51°15.835 2°47.321 289.1 12.2 289 17.4
2008-05-29 08:49:45 51°15.843 2°47.291 289 12.2 293 17.6
2008-05-29 08:49:49 51°15.847 2°47.271 288.8 12.2 289 17.6
2008-05-29 08:49:54 51°15.853 2°47.246 288.2 12.2 291 17.6
2008-05-29 08:49:59 51°15.859 2°47.22 287.5 12.2 289 17.6
2008-05-29 08:50:05 51°15.866 2°47.19 287.3 12.2 291 17.9
2008-05-29 08:50:09 51°15.871 2°47.169 287.9 12.2 290 17.9
2008-05-29 08:50:14 51°15.877 2°47.144 288.6 12.2 292 17.9
2008-05-29 08:50:19 51°15.883 2°47.119 288.7 12.1 290 18
2008-05-29 08:50:25 51°15.89 2°47.089 288.3 12.2 291 18
2008-05-29 08:50:29 51°15.894 2°47.069 287.7 12.2 289 18.1
2008-05-29 08:50:34 51°15.901 2°47.044 287.8 12.2 292 18.1
2008-05-29 08:50:39 51°15.906 2°47.018 287.8 12.1 290 18.1
2008-05-29 08:50:45 51°15.913 2°46.988 287.3 12.1 290 18.1
2008-05-29 08:50:49 51°15.918 2°46.968 287.3 12.1 290 18.1
2008-05-29 08:50:54 51°15.923 2°46.943 287.4 12.1 290 18.1
2008-05-29 08:50:59 51°15.93 2°46.918 288.1 12.1 291 18
2008-05-29 08:51:04 51°15.936 2°46.893 289 12.2 292 18
2008-05-29 08:51:09 51°15.943 2°46.868 289.4 12.2 293 17.8
2008-05-29 08:51:14 51°15.949 2°46.844 289.7 12.2 293 17.8
2008-05-29 08:51:19 51°15.956 2°46.819 290.4 12.2 293 17.7
2008-05-29 08:51:24 51°15.963 2°46.795 290.8 12.1 295 17.6
2008-05-29 08:51:29 51°15.969 2°46.77 291.1 12.1 292 17.5
2008-05-29 08:51:34 51°15.977 2°46.746 290.9 12.2 295 17.4
2008-05-29 08:51:39 51°15.983 2°46.721 290.6 12.1 293 17.3
2008-05-29 08:51:44 51°15.99 2°46.696 289.5 12.1 293 17.2
2008-05-29 08:51:49 51°15.996 2°46.672 289.8 12.1 293 17
2008-05-29 08:51:54 51°16.004 2°46.647 290 12.1 295 16.7
2008-05-29 08:51:59 51°16.01 2°46.623 290.9 12.1 293 16.4
2008-05-29 08:52:05 51°16.019 2°46.594 290.4 12.2 295 16.2
2008-05-29 08:52:09 51°16.024 2°46.574 290.6 12.1 294 16
2008-05-29 08:52:14 51°16.031 2°46.55 290.6 12.2 295 15.9
2008-05-29 08:52:19 51°16.038 2°46.525 291 12.1 294 15.6
2008-05-29 08:52:25 51°16.047 2°46.496 290.1 12.1 294 15.5
2008-05-29 08:52:29 51°16.052 2°46.476 289.6 12.1 293 15.5
2008-05-29 08:52:34 51°16.058 2°46.452 289.1 12.1 293 13.9
2008-05-29 08:52:39 51°16.065 2°46.427 289.6 12.1 294 13
2008-05-29 08:52:45 51°16.074 2°46.398 289.8 12.1 295 13
2008-05-29 08:52:49 51°16.079 2°46.378 290.5 12.1 294 13.3
2008-05-29 08:52:54 51°16.086 2°46.354 290.3 12.1 294 13.4
2008-05-29 08:52:59 51°16.093 2°46.33 290.2 12.1 295 13.5
2008-05-29 08:53:04 51°16.1 2°46.305 290.4 12.1 294 13.6
2008-05-29 08:53:09 51°16.107 2°46.281 290.5 12.1 294 13.6
2008-05-29 08:53:14 51°16.114 2°46.256 290.4 12.2 295 13.5
2008-05-29 08:53:19 51°16.121 2°46.232 290.4 12.2 294 13.4
2008-05-29 08:53:25 51°16.13 2°46.203 290.3 12.2 296 13.3
2008-05-29 08:53:29 51°16.136 2°46.183 291.7 12.2 296 13.1
2008-05-29 08:53:34 51°16.143 2°46.159 292.1 12.2 296 12.9
2008-05-29 08:53:39 51°16.151 2°46.135 292.6 12.3 297 12.9
2008-05-29 08:53:44 51°16.159 2°46.111 293 12.2 298 12.7
2008-05-29 08:53:49 51°16.166 2°46.087 293.5 12.2 296 12.6
2008-05-29 08:53:54 51°16.175 2°46.063 293.8 12.3 299 12.6
2008-05-29 08:53:59 51°16.182 2°46.039 294.4 12.2 298 12.5
2008-05-29 08:54:04 51°16.19 2°46.015 294.1 12.2 297 12.4
2008-05-29 08:54:09 51°16.198 2°45.991 293.9 12.3 297 12.4
2008-05-29 08:54:14 51°16.206 2°45.967 293.2 12.3 296 12.3
2008-05-29 08:54:19 51°16.214 2°45.942 293.5 12.3 297 12.3
2008-05-29 08:54:25 51°16.223 2°45.914 293.5 12.4 298 12.2
2008-05-29 08:54:29 51°16.229 2°45.894 293.8 12.4 297 12.1
2008-05-29 08:54:34 51°16.237 2°45.87 294 12.4 298 11.9
2008-05-29 08:54:39 51°16.245 2°45.845 294.4 12.4 297 11.8
2008-05-29 08:54:44 51°16.253 2°45.821 295.1 12.3 299 11.6
2008-05-29 08:54:49 51°16.261 2°45.797 294.7 12.3 297 11.7
2008-05-29 08:54:54 51°16.268 2°45.772 294.1 12.4 296 11.7
2008-05-29 08:54:59 51°16.276 2°45.748 293.7 12.4 297 11.9
2008-05-29 08:55:05 51°16.285 2°45.719 293.8 12.4 296 11.7
2008-05-29 08:55:09 51°16.291 2°45.699 293.5 12.4 297 11.9
2008-05-29 08:55:14 51°16.299 2°45.675 293.3 12.4 296 11.8
2008-05-29 08:55:19 51°16.306 2°45.65 292.8 12.4 296 11.7
2008-05-29 08:55:24 51°16.314 2°45.626 293.1 12.4 297 11.9
2008-05-29 08:55:29 51°16.322 2°45.601 293.7 12.4 296 12
2008-05-29 08:55:34 51°16.329 2°45.576 293.2 12.4 297 12
2008-05-29 08:55:39 51°16.337 2°45.552 293.4 12.4 296 12.1
2008-05-29 08:55:44 51°16.345 2°45.528 293.7 12.3 297 12.2
2008-05-29 08:55:49 51°16.352 2°45.503 293.4 12.3 296 12.3
2008-05-29 08:55:54 51°16.36 2°45.479 293.1 12.4 298 12.2
2008-05-29 08:55:59 51°16.368 2°45.454 293.8 12.5 298 12.3
2008-05-29 08:56:04 51°16.377 2°45.43 294.2 12.5 298 12.3
2008-05-29 08:56:09 51°16.384 2°45.405 294.3 12.5 297 12.3
2008-05-29 08:56:14 51°16.392 2°45.381 294.6 12.5 298 12.3
2008-05-29 08:56:19 51°16.401 2°45.357 295.4 12.5 299 12.3
2008-05-29 08:56:25 51°16.411 2°45.327 296.2 12.6 299 12.4
2008-05-29 08:56:29 51°16.418 2°45.308 296.8 12.6 301 12.6
2008-05-29 08:56:34 51°16.427 2°45.284 297.4 12.5 300 12.7
2008-05-29 08:56:39 51°16.435 2°45.26 297 12.6 300 13
2008-05-29 08:56:44 51°16.444 2°45.236 297.2 12.6 300 12.8
2008-05-29 08:56:49 51°16.453 2°45.212 297.7 12.5 301 12.6
2008-05-29 08:56:54 51°16.461 2°45.188 297.5 12.5 299 12.7
2008-05-29 08:57:00 51°16.472 2°45.159 296.9 12.6 299 13.1
2008-05-29 08:57:05 51°16.48 2°45.134 296.8 12.6 299 13.1
2008-05-29 08:57:09 51°16.487 2°45.115 296.7 12.6 300 12.9
2008-05-29 08:57:14 51°16.496 2°45.09 296.8 12.6 299 12.9
2008-05-29 08:57:19 51°16.504 2°45.066 296.9 12.6 299 12.8
2008-05-29 08:57:24 51°16.513 2°45.042 296.8 12.6 298 12.8
2008-05-29 08:57:29 51°16.521 2°45.017 296.8 12.6 299 12.7
2008-05-29 08:57:34 51°16.529 2°44.993 296.2 12.6 297 12.7
2008-05-29 08:57:39 51°16.537 2°44.968 294.9 12.6 296 12.7
2008-05-29 08:57:44 51°16.545 2°44.943 294.4 12.6 297 12.7
2008-05-29 08:57:49 51°16.552 2°44.918 293.9 12.6 296 12.7
2008-05-29 08:57:54 51°16.56 2°44.893 293.8 12.5 296 12.8
2008-05-29 08:57:59 51°16.567 2°44.868 293.4 12.5 296 12.7
2008-05-29 08:58:04 51°16.575 2°44.843 294.1 12.6 298 12.8
2008-05-29 08:58:09 51°16.583 2°44.818 294.8 12.6 297 13.2
2008-05-29 08:58:14 51°16.592 2°44.794 295.9 12.6 299 13
2008-05-29 08:58:19 51°16.6 2°44.769 296.6 12.6 299 13.1
2008-05-29 08:58:25 51°16.611 2°44.74 297 12.6 299 13.1
2008-05-29 08:58:29 51°16.617 2°44.721 296.8 12.7 299 13.2
2008-05-29 08:58:34 51°16.626 2°44.696 296.8 12.7 299 13.6
2008-05-29 08:58:39 51°16.634 2°44.672 296.8 12.7 298 13.6
2008-05-29 08:58:44 51°16.643 2°44.647 297 12.7 300 13.5
2008-05-29 08:58:49 51°16.651 2°44.623 297.2 12.7 298 13.6
2008-05-29 08:58:54 51°16.66 2°44.598 297.1 12.7 300 13.7
2008-05-29 08:59:00 51°16.67 2°44.569 297.1 12.6 299 13.7
2008-05-29 08:59:05 51°16.679 2°44.545 296.9 12.6 299 13.8
2008-05-29 08:59:09 51°16.686 2°44.525 296.9 12.7 299 14.3
2008-05-29 08:59:14 51°16.694 2°44.501 296.8 12.6 299 14.5
2008-05-29 08:59:19 51°16.702 2°44.476 296.7 12.6 298 15
2008-05-29 08:59:25 51°16.712 2°44.447 296.4 12.6 299 15.1
2008-05-29 08:59:29 51°16.719 2°44.427 296.4 12.7 298 15.4
2008-05-29 08:59:34 51°16.727 2°44.403 296.3 12.6 299 15.7
2008-05-29 08:59:39 51°16.736 2°44.378 296.6 12.7 299 15.8
2008-05-29 08:59:45 51°16.746 2°44.349 296.8 12.6 299 15.9
2008-05-29 08:59:49 51°16.752 2°44.329 296.4 12.6 298 16
2008-05-29 08:59:54 51°16.761 2°44.305 296.2 12.5 299 15.9
2008-05-29 08:59:59 51°16.769 2°44.28 296.2 12.6 298 16.1
2008-05-29 09:00:04 51°16.778 2°44.256 295.9 12.6 299 16.2
2008-05-29 09:00:09 51°16.785 2°44.231 295.2 12.5 296 16.2
2008-05-29 09:00:14 51°16.793 2°44.207 294.6 12.5 297 16.4
2008-05-29 09:00:19 51°16.8 2°44.182 293.7 12.5 296 16.3
2008-05-29 09:00:25 51°16.809 2°44.152 293.3 12.5 295 16.4
2008-05-29 09:00:29 51°16.815 2°44.132 293 12.5 296 16.4
2008-05-29 09:00:34 51°16.823 2°44.107 292.7 12.5 295 16.4
2008-05-29 09:00:39 51°16.83 2°44.082 292.6 12.5 295 16.5
2008-05-29 09:00:44 51°16.838 2°44.057 292.5 12.5 296 16.5
2008-05-29 09:00:49 51°16.845 2°44.032 293.1 12.5 296 16.5
2008-05-29 09:00:54 51°16.853 2°44.007 293.1 12.4 296 16.5
2008-05-29 09:01:00 51°16.862 2°43.977 293.2 12.4 296 16.2
2008-05-29 09:01:05 51°16.87 2°43.953 294.2 12.4 298 16.1
2008-05-29 09:01:09 51°16.876 2°43.933 294.6 12.4 298 16.2
2008-05-29 09:01:14 51°16.885 2°43.91 296.8 12.4 301 16.4
2008-05-29 09:01:19 51°16.894 2°43.886 298.2 12.5 301 16.1
2008-05-29 09:01:25 51°16.905 2°43.858 299.6 12.5 303 15.9
2008-05-29 09:01:29 51°16.913 2°43.84 301.1 12.5 304 16
2008-05-29 09:01:34 51°16.923 2°43.817 301.5 12.5 304 16.2
2008-05-29 09:01:39 51°16.933 2°43.795 302.6 12.5 305 16.1
2008-05-29 09:01:45 51°16.945 2°43.768 303.4 12.5 307 15.9
2008-05-29 09:01:49 51°16.953 2°43.75 304.1 12.6 306 16.1
2008-05-29 09:01:54 51°16.964 2°43.728 304.5 12.6 307 15.9
2008-05-29 09:01:59 51°16.974 2°43.706 304.9 12.6 307 15.9
2008-05-29 09:02:04 51°16.985 2°43.684 304.9 12.6 307 15.8
2008-05-29 09:02:09 51°16.995 2°43.661 305.3 12.6 307 15.4
2008-05-29 09:02:14 51°17.006 2°43.639 305.2 12.6 307 15.6
2008-05-29 09:02:19 51°17.016 2°43.617 304.8 12.6 306 15.7
2008-05-29 09:02:25 51°17.029 2°43.59 305 12.6 307 15.9
2008-05-29 09:02:29 51°17.037 2°43.572 305.3 12.6 307 15.8
2008-05-29 09:02:34 51°17.048 2°43.55 305.3 12.6 307 15.8
2008-05-29 09:02:39 51°17.059 2°43.528 305.6 12.6 308 15.6
2008-05-29 09:02:44 51°17.069 2°43.506 305.7 12.6 307 15.8
2008-05-29 09:02:49 51°17.08 2°43.484 305.5 12.6 308 15.9
2008-05-29 09:02:54 51°17.09 2°43.461 305.2 12.6 306 15.7
2008-05-29 09:02:59 51°17.101 2°43.439 305 12.6 307 15.5
2008-05-29 09:03:04 51°17.111 2°43.417 304.7 12.6 306 15.6
2008-05-29 09:03:09 51°17.121 2°43.395 304.9 12.6 307 15.4
2008-05-29 09:03:14 51°17.132 2°43.373 305 12.6 306 15.2
2008-05-29 09:03:19 51°17.142 2°43.35 304.7 12.6 307 15
2008-05-29 09:03:25 51°17.154 2°43.324 304.4 12.5 306 14.4
2008-05-29 09:03:29 51°17.163 2°43.306 304.2 12.5 306 13.9
2008-05-29 09:03:34 51°17.173 2°43.284 304.1 12.5 307 13.2
2008-05-29 09:03:39 51°17.183 2°43.261 304.5 12.5 307 12.3
2008-05-29 09:03:44 51°17.194 2°43.239 304.5 12.4 307 13.7
2008-05-29 09:03:49 51°17.204 2°43.217 304.5 12.5 308 14.2
2008-05-29 09:03:54 51°17.215 2°43.195 304.7 12.5 307 14.3
2008-05-29 09:03:59 51°17.225 2°43.173 304.6 12.6 306 13.6
2008-05-29 09:04:05 51°17.237 2°43.146 304.3 12.5 306 12.7
2008-05-29 09:04:09 51°17.246 2°43.128 304.4 12.5 307 12
2008-05-29 09:04:14 51°17.256 2°43.107 304 12.4 307 13.7
2008-05-29 09:04:19 51°17.266 2°43.084 304 12.5 307 13.9
2008-05-29 09:04:25 51°17.279 2°43.058 304.3 12.5 306 13.5
2008-05-29 09:04:29 51°17.288 2°43.041 304.8 12.5 308 13
2008-05-29 09:04:34 51°17.298 2°43.019 305.1 12.4 308 12.7
2008-05-29 09:04:39 51°17.309 2°42.997 305.2 12.5 308 12.5
2008-05-29 09:04:44 51°17.319 2°42.975 305.1 12.4 308 11.9
2008-05-29 09:04:49 51°17.33 2°42.954 305.5 12.3 308 11.2
2008-05-29 09:04:54 51°17.34 2°42.932 304.9 12.3 307 11.5
2008-05-29 09:04:59 51°17.351 2°42.91 304.1 12.3 306 11.6
2008-05-29 09:05:04 51°17.361 2°42.889 304.4 12.4 308 11.3
2008-05-29 09:05:09 51°17.372 2°42.867 304.5 12.4 308 10.9
2008-05-29 09:05:14 51°17.382 2°42.846 304.8 12.4 309 10.6
2008-05-29 09:05:19 51°17.393 2°42.824 305.2 12.3 308 12.6
2008-05-29 09:05:25 51°17.406 2°42.798 305.3 12.4 308 13.2
2008-05-29 09:05:29 51°17.415 2°42.781 305 12.5 309 13.5
2008-05-29 09:05:34 51°17.426 2°42.759 305.4 12.5 309 13.7
2008-05-29 09:05:39 51°17.437 2°42.738 305.5 12.6 309 14.2
2008-05-29 09:05:44 51°17.448 2°42.716 305.5 12.6 309 14.6
2008-05-29 09:05:49 51°17.459 2°42.695 305.8 12.6 309 15.4
2008-05-29 09:05:54 51°17.469 2°42.673 305 12.6 308 17.1
2008-05-29 09:05:59 51°17.48 2°42.651 304 12.6 308 19.1
2008-05-29 09:06:05 51°17.493 2°42.624 303.2 12.6 307 20.9
2008-05-29 09:06:09 51°17.501 2°42.607 302.8 12.5 307 21.7
2008-05-29 09:06:14 51°17.511 2°42.584 302.1 12.6 306 22.2
2008-05-29 09:06:19 51°17.521 2°42.562 301.8 12.6 307 22.6
2008-05-29 09:06:25 51°17.533 2°42.534 301.6 12.5 305 22.9
2008-05-29 09:06:29 51°17.542 2°42.516 301.4 12.6 306 23.1
2008-05-29 09:06:34 51°17.552 2°42.494 302 12.6 307 23.5
2008-05-29 09:06:39 51°17.562 2°42.471 301.9 12.6 306 23.6
2008-05-29 09:06:44 51°17.573 2°42.449 302.2 12.7 307 23.9
2008-05-29 09:06:49 51°17.584 2°42.427 302.6 12.6 307 23.9
2008-05-29 09:06:54 51°17.595 2°42.405 303.9 12.7 310 24
2008-05-29 09:06:59 51°17.606 2°42.384 304.9 12.6 309 24.1
2008-05-29 09:07:04 51°17.617 2°42.362 305.9 12.7 311 24.3
2008-05-29 09:07:09 51°17.629 2°42.341 306.3 12.7 311 24.3
2008-05-29 09:07:14 51°17.64 2°42.32 306.7 12.7 311 24.5
2008-05-29 09:07:19 51°17.652 2°42.299 306.9 12.7 311 24.6
2008-05-29 09:07:25 51°17.665 2°42.273 306.9 12.7 310 24.6
2008-05-29 09:07:29 51°17.675 2°42.256 306.9 12.7 311 24.7
2008-05-29 09:07:34 51°17.686 2°42.235 306.9 12.7 311 24.8
2008-05-29 09:07:39 51°17.698 2°42.213 307.3 12.7 311 24.9
2008-05-29 09:07:44 51°17.709 2°42.192 307.6 12.7 311 25.1
2008-05-29 09:07:49 51°17.721 2°42.171 307.6 12.7 311 25
2008-05-29 09:07:54 51°17.733 2°42.15 308.1 12.8 312 25.1
2008-05-29 09:07:59 51°17.745 2°42.129 309 12.7 312 25
2008-05-29 09:08:05 51°17.759 2°42.103 308.5 12.8 311 25
2008-05-29 09:08:09 51°17.767 2°42.085 307.3 12.8 309 24.9
2008-05-29 09:08:14 51°17.778 2°42.063 306.2 12.7 309 25
2008-05-29 09:08:19 51°17.789 2°42.041 304.9 12.7 306 25
2008-05-29 09:08:25 51°17.802 2°42.014 304.3 12.7 307 25.1
2008-05-29 09:08:29 51°17.81 2°41.995 304.2 12.7 306 25.2
2008-05-29 09:08:34 51°17.82 2°41.973 303.8 12.7 306 25.3
2008-05-29 09:08:39 51°17.83 2°41.949 302.6 12.6 303 25.1
2008-05-29 09:08:45 51°17.842 2°41.922 301.4 12.6 304 25.3
2008-05-29 09:08:49 51°17.849 2°41.903 300.6 12.5 302 25.3
2008-05-29 09:08:54 51°17.858 2°41.88 300.3 12.5 303 25.2
2008-05-29 09:08:59 51°17.867 2°41.856 299.9 12.5 303 25.2
2008-05-29 09:09:05 51°17.879 2°41.829 300.4 12.5 303 25.1
2008-05-29 09:09:09 51°17.887 2°41.81 300.9 12.6 304 25.1
2008-05-29 09:09:14 51°17.896 2°41.787 301.3 12.6 304 25
2008-05-29 09:09:19 51°17.906 2°41.763 301.4 12.6 303 25
2008-05-29 09:09:25 51°17.917 2°41.736 301.1 12.5 303 24.9
2008-05-29 09:09:29 51°17.925 2°41.717 301.1 12.5 303 24.8
2008-05-29 09:09:34 51°17.934 2°41.694 301.1 12.5 303 24.8
2008-05-29 09:09:39 51°17.944 2°41.671 301.1 12.5 303 24.8
2008-05-29 09:09:44 51°17.953 2°41.648 301.1 12.4 303 24.6
2008-05-29 09:09:49 51°17.963 2°41.625 301.2 12.4 302 24.6
2008-05-29 09:09:54 51°17.972 2°41.601 300 12.4 301 24.5
2008-05-29 09:09:59 51°17.981 2°41.578 299.3 12.4 302 24.3
2008-05-29 09:10:05 51°17.991 2°41.55 299 12.4 301 24.3
2008-05-29 09:10:09 51°17.998 2°41.531 299 12.4 300 24.2
2008-05-29 09:10:14 51°18.007 2°41.507 298.6 12.4 301 23.7
2008-05-29 09:10:19 51°18.015 2°41.484 298.3 12.4 300 23.2
2008-05-29 09:10:25 51°18.026 2°41.455 298.2 12.4 301 23.7
2008-05-29 09:10:29 51°18.033 2°41.436 298.3 12.4 300 23.8
2008-05-29 09:10:34 51°18.042 2°41.412 298 12.4 300 23.8
2008-05-29 09:10:40 51°18.052 2°41.384 297.9 12.4 300 23.7
2008-05-29 09:10:45 51°18.061 2°41.36 298 12.4 300 23.4
2008-05-29 09:10:49 51°18.067 2°41.341 298 12.4 300 23
2008-05-29 09:10:54 51°18.076 2°41.318 298.1 12.4 301 22.4
2008-05-29 09:10:59 51°18.085 2°41.294 298.1 12.4 300 21.4
2008-05-29 09:11:04 51°18.093 2°41.27 298.1 12.4 300 21
2008-05-29 09:11:09 51°18.102 2°41.246 297.9 12.4 300 22
2008-05-29 09:11:14 51°18.111 2°41.223 297.9 12.4 301 22.2
2008-05-29 09:11:19 51°18.119 2°41.199 298 12.4 300 21.5
2008-05-29 09:11:25 51°18.13 2°41.17 298.1 12.4 301 20.6
2008-05-29 09:11:29 51°18.137 2°41.151 298.2 12.5 301 20.6
2008-05-29 09:11:34 51°18.146 2°41.128 299.1 12.5 302 20.1
2008-05-29 09:11:39 51°18.155 2°41.104 299.4 12.5 301 20.4
2008-05-29 09:11:44 51°18.164 2°41.081 299.5 12.4 303 20.8
2008-05-29 09:11:49 51°18.173 2°41.058 299.7 12.4 301 20.7
2008-05-29 09:11:54 51°18.182 2°41.034 299.2 12.4 300 20.7
2008-05-29 09:11:59 51°18.19 2°41.01 298.3 12.4 300 20.3
2008-05-29 09:12:04 51°18.199 2°40.986 298 12.4 300 19.5
2008-05-29 09:12:09 51°18.207 2°40.962 297.7 12.4 299 17.5
2008-05-29 09:12:14 51°18.216 2°40.938 297.2 12.5 301 18.2
2008-05-29 09:12:19 51°18.224 2°40.914 297.6 12.5 300 18.3
2008-05-29 09:12:25 51°18.235 2°40.886 297.5 12.4 300 18.3
2008-05-29 09:12:29 51°18.241 2°40.867 297.9 12.4 299 16.4
2008-05-29 09:12:34 51°18.25 2°40.843 297.7 12.4 299 13.6
2008-05-29 09:12:40 51°18.26 2°40.815 298.1 12.3 301 15.4
2008-05-29 09:12:44 51°18.267 2°40.796 298 12.3 300 17.1
2008-05-29 09:12:49 51°18.276 2°40.773 298.3 12.4 301 18.3
2008-05-29 09:12:54 51°18.285 2°40.75 298.8 12.4 301 19
2008-05-29 09:12:59 51°18.293 2°40.726 298.4 12.4 300 20.6
2008-05-29 09:13:05 51°18.304 2°40.698 298.2 12.4 301 21.3
2008-05-29 09:13:09 51°18.31 2°40.678 297.1 12.4 299 20.1
2008-05-29 09:13:14 51°18.319 2°40.655 297.5 12.4 301 15.8
2008-05-29 09:13:19 51°18.328 2°40.631 297.3 12.3 300 17.1
2008-05-29 09:13:25 51°18.339 2°40.604 298.4 12.3 302 18
2008-05-29 09:13:29 51°18.346 2°40.585 299.3 12.4 302 18.8
2008-05-29 09:13:34 51°18.355 2°40.562 299.6 12.4 302 19.4
2008-05-29 09:13:39 51°18.365 2°40.539 300.4 12.4 304 19.4
2008-05-29 09:13:44 51°18.374 2°40.516 301 12.4 304 16.9
2008-05-29 09:13:49 51°18.384 2°40.494 301.9 12.3 306 16.4
2008-05-29 09:13:54 51°18.394 2°40.472 302.6 12.3 305 16.9
2008-05-29 09:13:59 51°18.404 2°40.45 302.7 12.4 306 17.6
2008-05-29 09:14:04 51°18.414 2°40.427 303 12.4 306 17.6
2008-05-29 09:14:09 51°18.424 2°40.405 303 12.4 306 17.4
2008-05-29 09:14:14 51°18.435 2°40.383 303 12.4 306 16.5
2008-05-29 09:14:19 51°18.444 2°40.361 302.7 12.3 305 14.5
2008-05-29 09:14:25 51°18.456 2°40.334 302.2 12.3 305 11.4
2008-05-29 09:14:29 51°18.463 2°40.316 301.5 12.1 303 13.9
2008-05-29 09:14:34 51°18.473 2°40.294 300.4 12.1 303 16.9
2008-05-29 09:14:39 51°18.482 2°40.271 299.9 12.2 302 19.2
2008-05-29 09:14:44 51°18.491 2°40.248 298.8 12.3 302 21
2008-05-29 09:14:49 51°18.5 2°40.224 298.8 12.3 302 22.5
2008-05-29 09:14:54 51°18.509 2°40.202 298.9 12.3 303 23.6
2008-05-29 09:14:59 51°18.518 2°40.178 299.4 12.4 302 24.5
2008-05-29 09:15:05 51°18.53 2°40.151 299.1 12.4 304 24.9
2008-05-29 09:15:09 51°18.537 2°40.133 300.2 12.4 303 25.2
2008-05-29 09:15:14 51°18.547 2°40.11 300.4 12.4 305 25.2
2008-05-29 09:15:19 51°18.556 2°40.087 300.4 12.4 303 25.3
2008-05-29 09:15:25 51°18.567 2°40.059 299.5 12.4 303 25.2
2008-05-29 09:15:29 51°18.575 2°40.041 299.5 12.4 303 25.3
2008-05-29 09:15:34 51°18.584 2°40.018 299.2 12.4 303 25.2
2008-05-29 09:15:39 51°18.594 2°39.995 299.6 12.4 303 25.3
2008-05-29 09:15:44 51°18.603 2°39.972 299.4 12.5 304 26
2008-05-29 09:15:49 51°18.612 2°39.948 299.5 12.5 302 26.1
2008-05-29 09:15:54 51°18.622 2°39.926 299 12.5 303 26.2
2008-05-29 09:15:59 51°18.631 2°39.902 298.9 12.4 302 26.3
2008-05-29 09:16:05 51°18.642 2°39.875 298.8 12.4 303 25.7
2008-05-29 09:16:09 51°18.65 2°39.857 298.6 12.4 304 25.9
2008-05-29 09:16:14 51°18.659 2°39.834 299 12.4 303 25.5
2008-05-29 09:16:19 51°18.669 2°39.811 299.2 12.5 304 25.8
2008-05-29 09:16:25 51°18.681 2°39.783 299.3 12.5 303 25.4
2008-05-29 09:16:29 51°18.688 2°39.765 299.4 12.5 304 25.4
2008-05-29 09:16:34 51°18.698 2°39.742 299.3 12.5 303 25.4
2008-05-29 09:16:39 51°18.708 2°39.719 299.7 12.5 304 25.5
2008-05-29 09:16:44 51°18.717 2°39.696 299.7 12.5 304 25.6
2008-05-29 09:16:49 51°18.727 2°39.674 299.7 12.5 306 25.5
2008-05-29 09:16:54 51°18.737 2°39.651 301.1 12.5 306 25.6
2008-05-29 09:17:00 51°18.75 2°39.624 301.5 12.5 306 25.6
2008-05-29 09:17:05 51°18.76 2°39.602 301.8 12.5 306 25.6
2008-05-29 09:17:09 51°18.768 2°39.584 301.8 12.5 306 25.6
2008-05-29 09:17:14 51°18.779 2°39.561 301.8 12.6 307 25.7
2008-05-29 09:17:19 51°18.789 2°39.539 301.9 12.5 306 25.8
2008-05-29 09:17:25 51°18.8 2°39.511 301.2 12.6 304 25.7
2008-05-29 09:17:29 51°18.808 2°39.493 300.7 12.6 305 26
2008-05-29 09:17:34 51°18.818 2°39.47 300.1 12.6 303 25.9
2008-05-29 09:17:39 51°18.828 2°39.447 300.2 12.5 305 25.8
2008-05-29 09:17:45 51°18.839 2°39.418 299.7 12.5 302 26
2008-05-29 09:17:49 51°18.847 2°39.4 299.8 12.6 304 26
2008-05-29 09:17:54 51°18.856 2°39.377 299.4 12.6 303 26.2
2008-05-29 09:17:59 51°18.866 2°39.354 299.9 12.6 304 26.2
2008-05-29 09:18:05 51°18.877 2°39.326 299.7 12.5 304 26.4
2008-05-29 09:18:09 51°18.885 2°39.308 299.8 12.5 304 26.6
2008-05-29 09:18:14 51°18.895 2°39.285 299.3 12.5 304 26.8
2008-05-29 09:18:19 51°18.905 2°39.262 299.6 12.5 304 27
2008-05-29 09:18:25 51°18.916 2°39.234 299.7 12.5 304 27
2008-05-29 09:18:29 51°18.924 2°39.216 299.5 12.5 304 27.3
2008-05-29 09:18:34 51°18.934 2°39.193 299.3 12.5 304 27.4
2008-05-29 09:18:39 51°18.943 2°39.17 299.4 12.5 304 27.8
2008-05-29 09:18:44 51°18.953 2°39.147 298.9 12.4 303 28
2008-05-29 09:18:49 51°18.962 2°39.124 298 12.4 303 28
2008-05-29 09:18:54 51°18.972 2°39.101 298.2 12.5 303 28.2
2008-05-29 09:19:00 51°18.983 2°39.073 299.1 12.5 305 28.2
2008-05-29 09:19:05 51°18.993 2°39.05 298.1 12.5 302 28.4
2008-05-29 09:19:09 51°19 2°39.032 298.7 12.5 305 28.5
2008-05-29 09:19:14 51°19.01 2°39.009 299.1 12.5 303 28.5
2008-05-29 09:19:19 51°19.02 2°38.986 298.7 12.5 304 28.6
2008-05-29 09:19:25 51°19.031 2°38.958 299.2 12.5 303 28.8
2008-05-29 09:19:29 51°19.039 2°38.94 298.6 12.6 304 28.8
2008-05-29 09:19:34 51°19.048 2°38.916 298.8 12.6 304 28.8
2008-05-29 09:19:40 51°19.06 2°38.888 298.8 12.5 303 28.7
2008-05-29 09:19:45 51°19.069 2°38.865 298.4 12.5 304 28.8
2008-05-29 09:19:49 51°19.077 2°38.847 298.8 12.6 303 28.7
2008-05-29 09:19:54 51°19.087 2°38.824 299.4 12.5 304 28.6
2008-05-29 09:19:59 51°19.096 2°38.801 299 12.5 303 28.8
2008-05-29 09:20:05 51°19.107 2°38.773 298.2 12.2 302 28.8
2008-05-29 09:20:09 51°19.114 2°38.755 297.5 12 303 28.8
2008-05-29 09:20:14 51°19.123 2°38.733 298.2 11.8 303 28.6
2008-05-29 09:20:19 51°19.132 2°38.711 298.4 11.8 303 28.7
2008-05-29 09:20:25 51°19.143 2°38.685 299.4 11.9 304 28.6
2008-05-29 09:20:29 51°19.15 2°38.667 298.7 12 302 28.6
2008-05-29 09:20:34 51°19.159 2°38.645 298.3 12 303 28.7
2008-05-29 09:20:39 51°19.168 2°38.622 298.2 12.1 302 28.6
2008-05-29 09:20:44 51°19.177 2°38.599 297.7 12.2 301 28.6
2008-05-29 09:20:49 51°19.185 2°38.575 297.5 12.2 300 28.1
2008-05-29 09:20:54 51°19.194 2°38.552 297.5 12.2 302 28.3
2008-05-29 09:21:00 51°19.205 2°38.524 298.2 12.3 301 27.9
2008-05-29 09:21:05 51°19.213 2°38.5 298.1 12.4 301 27.7
2008-05-29 09:21:09 51°19.22 2°38.481 298 12.4 299 27.5
2008-05-29 09:21:14 51°19.228 2°38.457 297.5 12.4 299 27.2
2008-05-29 09:21:19 51°19.237 2°38.433 297.4 12.4 299 26.9
2008-05-29 09:21:25 51°19.247 2°38.405 297.5 12.4 299 26.7
2008-05-29 09:21:29 51°19.254 2°38.386 297.7 12.4 300 26.7
2008-05-29 09:21:34 51°19.262 2°38.362 298.2 12.4 300 26.2
2008-05-29 09:21:40 51°19.273 2°38.334 297.9 12.4 300 25.8
2008-05-29 09:21:45 51°19.281 2°38.31 298.5 12.4 301 25.6
2008-05-29 09:21:49 51°19.288 2°38.291 298.2 12.5 300 25.2
2008-05-29 09:21:54 51°19.298 2°38.268 299.7 12.5 304 24.2
2008-05-29 09:21:59 51°19.308 2°38.246 302.7 12.4 305 24.5
2008-05-29 09:22:05 51°19.322 2°38.22 306.2 12.5 310 24.4
2008-05-29 09:22:09 51°19.33 2°38.203 307.6 12.4 308 23.7
2008-05-29 09:22:14 51°19.341 2°38.182 307.6 12.5 309 23.3
2008-05-29 09:22:19 51°19.352 2°38.16 307.7 12.4 309 23.8
2008-05-29 09:22:25 51°19.365 2°38.134 307.6 12.5 308 24.1
2008-05-29 09:22:29 51°19.374 2°38.117 307 12.5 309 23.9
2008-05-29 09:22:34 51°19.384 2°38.095 306.3 12.5 308 23.7
2008-05-29 09:22:39 51°19.395 2°38.074 306.3 12.4 308 22.3
2008-05-29 09:22:44 51°19.406 2°38.052 306.2 12.5 309 20.9
2008-05-29 09:22:49 51°19.416 2°38.031 306.3 12.4 309 23.1
2008-05-29 09:22:54 51°19.427 2°38.009 306.2 12.4 308 23
2008-05-29 09:22:59 51°19.437 2°37.987 305.5 12.3 306 22.4
2008-05-29 09:23:04 51°19.447 2°37.965 304.5 12.4 306 22.7
2008-05-29 09:23:09 51°19.457 2°37.943 304.1 12.4 306 22.6
2008-05-29 09:23:14 51°19.467 2°37.921 304.1 12.4 306 22.8
2008-05-29 09:23:19 51°19.477 2°37.899 304.2 12.3 305 22.8
2008-05-29 09:23:25 51°19.49 2°37.873 304.6 12.3 308 22.8
2008-05-29 09:23:29 51°19.498 2°37.856 305.5 12.3 307 21.9
2008-05-29 09:23:34 51°19.508 2°37.834 304.9 12.3 307 20.4
2008-05-29 09:23:39 51°19.519 2°37.812 304.7 12.3 308 21.4
2008-05-29 09:23:44 51°19.529 2°37.791 304.7 12.2 308 21.5
2008-05-29 09:23:49 51°19.54 2°37.77 305.1 12.2 309 22.1
2008-05-29 09:23:54 51°19.55 2°37.748 304.9 12.2 308 21.9
2008-05-29 09:24:00 51°19.562 2°37.723 304 12.1 307 21.8
2008-05-29 09:24:05 51°19.572 2°37.701 303.5 12.1 307 20.8
2008-05-29 09:24:09 51°19.58 2°37.684 303.5 12.1 307 21.1
2008-05-29 09:24:14 51°19.59 2°37.663 303.3 12 307 22.1
2008-05-29 09:24:19 51°19.601 2°37.642 303.9 12.1 308 22.6
2008-05-29 09:24:25 51°19.613 2°37.617 305.1 12.1 309 22.8
2008-05-29 09:24:29 51°19.622 2°37.601 305.6 12 310 21.7
2008-05-29 09:24:34 51°19.632 2°37.581 306.6 11.8 310 20.1
2008-05-29 09:24:39 51°19.643 2°37.562 306.6 11.5 312 21.4
2008-05-29 09:24:45 51°19.655 2°37.539 306.9 11.3 311 22.3
2008-05-29 09:24:49 51°19.663 2°37.524 307.2 11.1 311 22.9
2008-05-29 09:24:54 51°19.673 2°37.506 306.9 11 311 23.4
2008-05-29 09:24:59 51°19.683 2°37.488 307.3 10.9 312 23.2
2008-05-29 09:25:05 51°19.695 2°37.466 307.2 10.8 311 22.7
2008-05-29 09:25:09 51°19.703 2°37.452 307.1 10.7 312 22.3
2008-05-29 09:25:14 51°19.713 2°37.434 306.7 10.7 310 21.7
2008-05-29 09:25:19 51°19.722 2°37.416 306.4 10.7 311 21.4
2008-05-29 09:25:25 51°19.734 2°37.395 306.2 10.6 310 21.7
2008-05-29 09:25:29 51°19.742 2°37.38 306.2 10.6 311 21.9
2008-05-29 09:25:34 51°19.751 2°37.362 306.3 10.5 310 21.9
2008-05-29 09:25:39 51°19.76 2°37.345 306 10.6 311 22
2008-05-29 09:25:44 51°19.77 2°37.326 306.1 10.6 309 21.9
2008-05-29 09:25:49 51°19.779 2°37.309 306 10.4 310 21.7
2008-05-29 09:25:54 51°19.788 2°37.293 306.1 9.7 309 22.2
2008-05-29 09:25:59 51°19.796 2°37.277 305.7 8.9 311 22.1
2008-05-29 09:26:05 51°19.804 2°37.261 306.1 8.2 310 22.5
2008-05-29 09:26:09 51°19.81 2°37.251 306.4 7.6 311 22.2
2008-05-29 09:26:14 51°19.816 2°37.239 306.9 7 312 21.7
2008-05-29 09:26:19 51°19.823 2°37.229 307.9 6.6 313 21.8
2008-05-29 09:26:25 51°19.83 2°37.217 309.1 6.2 313 21
2008-05-29 09:26:29 51°19.834 2°37.209 309.3 5.8 313 21.1
2008-05-29 09:26:34 51°19.839 2°37.2 308.8 5.4 313 21.2
2008-05-29 09:26:39 51°19.844 2°37.192 307.9 5.2 314 21.5
2008-05-29 09:26:45 51°19.849 2°37.182 306.6 4.9 312 22
2008-05-29 09:26:49 51°19.853 2°37.176 306 4.7 312 21.7
2008-05-29 09:26:54 51°19.857 2°37.169 305.9 4.5 312 22.4
2008-05-29 09:26:59 51°19.861 2°37.162 306.1 4.3 312 22.4
2008-05-29 09:27:05 51°19.866 2°37.153 306.3 4.2 312 22.5
2008-05-29 09:27:09 51°19.869 2°37.148 306.4 4.1 312 22.6
2008-05-29 09:27:14 51°19.872 2°37.142 306.7 4 313 22.7
2008-05-29 09:27:19 51°19.876 2°37.136 307 3.8 313 22.8
2008-05-29 09:27:25 51°19.88 2°37.128 307.2 3.7 313 23.1
2008-05-29 09:27:29 51°19.883 2°37.124 307.7 3.6 313 22.9
2008-05-29 09:27:34 51°19.887 2°37.118 307.9 3.5 314 22.9
2008-05-29 09:27:39 51°19.89 2°37.113 308 3.4 314 22.8
2008-05-29 09:27:44 51°19.893 2°37.107 308.2 3.5 314 23
2008-05-29 09:27:49 51°19.896 2°37.101 308.3 3.4 314 22.7
2008-05-29 09:27:54 51°19.9 2°37.096 308.4 3.3 314 22.6
2008-05-29 09:27:59 51°19.903 2°37.091 308.4 3.2 315 22.4
2008-05-29 09:28:05 51°19.907 2°37.086 308.9 3.2 316 22.2
2008-05-29 09:28:09 51°19.909 2°37.082 309.1 3.1 316 22.5
2008-05-29 09:28:14 51°19.912 2°37.077 309.8 3 318 22.3
2008-05-29 09:28:19 51°19.915 2°37.073 310.5 3 318 22.3
2008-05-29 09:28:24 51°19.918 2°37.068 311.2 3 318 22.3
2008-05-29 09:28:29 51°19.921 2°37.064 311.8 2.9 320 22.1
2008-05-29 09:28:34 51°19.924 2°37.06 312.7 2.9 319 21.8
2008-05-29 09:28:39 51°19.927 2°37.056 313.4 2.9 321 22.1
2008-05-29 09:28:45 51°19.931 2°37.051 313.8 3 320 22
2008-05-29 09:28:49 51°19.934 2°37.048 314.2 3 321 21.9
2008-05-29 09:28:54 51°19.937 2°37.043 314.3 3 321 22.2
2008-05-29 09:28:59 51°19.941 2°37.039 314.6 3.1 321 22.1
2008-05-29 09:29:05 51°19.945 2°37.034 314.7 3.1 321 22
2008-05-29 09:29:09 51°19.947 2°37.03 314.9 3.2 322 22.1
2008-05-29 09:29:14 51°19.951 2°37.026 315.1 3.3 321 22.1
2008-05-29 09:29:19 51°19.954 2°37.021 315.1 3.3 321 22.3
2008-05-29 09:29:25 51°19.959 2°37.015 315.4 3.4 321 22.4
2008-05-29 09:29:29 51°19.962 2°37.011 315.5 3.4 321 22.3
2008-05-29 09:29:34 51°19.965 2°37.007 315.6 3.5 320 22.1
2008-05-29 09:29:39 51°19.969 2°37.002 315.6 3.5 320 22.6
2008-05-29 09:29:45 51°19.974 2°36.996 315.8 3.5 321 22.3
2008-05-29 09:29:49 51°19.977 2°36.992 315.9 3.6 321 22.5
2008-05-29 09:29:54 51°19.981 2°36.987 315.9 3.6 320 22.5
2008-05-29 09:29:59 51°19.985 2°36.983 316.1 3.6 321 22.6
2008-05-29 09:30:04 51°19.989 2°36.978 316.2 3.6 322 22.4
2008-05-29 09:30:09 51°19.993 2°36.973 316.3 3.7 322 22.4
2008-05-29 09:30:14 51°19.997 2°36.967 316.4 3.7 320 22.4
2008-05-29 09:30:19 51°20.001 2°36.962 316.3 3.8 321 22.6
2008-05-29 09:30:25 51°20.005 2°36.956 315.6 3.7 320 22.8
2008-05-29 09:30:29 51°20.009 2°36.951 314.4 3.7 319 22.8
2008-05-29 09:30:34 51°20.013 2°36.946 312.8 3.8 318 22.8
2008-05-29 09:30:39 51°20.016 2°36.94 311.3 3.5 315 22.8
2008-05-29 09:30:45 51°20.02 2°36.934 310.3 3.4 315 23.2
2008-05-29 09:30:49 51°20.022 2°36.93 309.6 3.2 316 23
2008-05-29 09:30:54 51°20.025 2°36.925 308.5 3.1 315 22.9
2008-05-29 09:31:00 51°20.029 2°36.92 308 3 315 23.4
2008-05-29 09:31:05 51°20.032 2°36.915 307.6 2.9 314 23.7
2008-05-29 09:31:09 51°20.034 2°36.912 307.7 2.7 313 24
2008-05-29 09:31:14 51°20.036 2°36.908 307.9 2.6 315 23.7
2008-05-29 09:31:19 51°20.039 2°36.904 308.1 2.4 315 23.8
2008-05-29 09:31:25 51°20.041 2°36.9 308.6 2.3 317 24.1
2008-05-29 09:31:29 51°20.043 2°36.897 309.1 2.2 319 24.2
2008-05-29 09:31:34 51°20.045 2°36.894 310.3 2.1 317 24.3
2008-05-29 09:31:39 51°20.047 2°36.892 311.5 1.9 319 24.4
2008-05-29 09:31:45 51°20.05 2°36.889 313 1.7 320 24.2
2008-05-29 09:31:49 51°20.051 2°36.887 314.9 1.6 324 24.3
2008-05-29 09:31:54 51°20.053 2°36.885 316 1.4 325 24.2
2008-05-29 09:31:59 51°20.054 2°36.884 317 1.2 329 24.2
2008-05-29 09:32:05 51°20.056 2°36.882 318.1 1.1 326 24.2
2008-05-29 09:32:09 51°20.057 2°36.881 319.4 1.2 331 24.5
2008-05-29 09:32:14 51°20.058 2°36.88 320.8 1 332 24.4
2008-05-29 09:32:19 51°20.06 2°36.879 321.6 0.9 337 24.4
2008-05-29 09:32:24 51°20.061 2°36.878 322.5 0.8 331 24.4
2008-05-29 09:32:29 51°20.062 2°36.878 323.2 0.7 336 24.4
2008-05-29 09:32:34 51°20.062 2°36.877 323.9 0.6 335 24.3
2008-05-29 09:32:39 51°20.063 2°36.877 324.8 0.5 347 24.2
2008-05-29 09:32:45 51°20.064 2°36.877 325.5 0.3 344 24.1
2008-05-29 09:32:49 51°20.064 2°36.876 325.8 0.3 337 24.1
2008-05-29 09:32:54 51°20.064 2°36.876 326.5 0.3 334 24
2008-05-29 09:32:59 51°20.065 2°36.876 326.6 0.3 341 23.9
2008-05-29 09:33:05 51°20.065 2°36.876 326.8 0.3 329 24
2008-05-29 09:33:09 51°20.066 2°36.876 327 0.3 335 23.9
2008-05-29 09:33:14 51°20.066 2°36.876 326.9 0.2 350 23.8
2008-05-29 09:33:19 51°20.066 2°36.876 326.5 0.1 19 23.7
2008-05-29 09:33:25 51°20.066 2°36.876 326 0.1 24 23.9
2008-05-29 09:33:29 51°20.066 2°36.876 325.7 0.1 42 23.8
2008-05-29 09:33:34 51°20.066 2°36.876 325.3 0.1 30 23.8
2008-05-29 09:33:39 51°20.066 2°36.876 324.9 0.1 29 23.8
2008-05-29 09:33:45 51°20.066 2°36.876 324.3 0.1 287 23.8
2008-05-29 09:33:49 51°20.066 2°36.876 323.7 0.1 44 23.9
2008-05-29 09:33:54 51°20.066 2°36.876 323 -999 296 23.9
2008-05-29 09:33:59 51°20.066 2°36.876 322.2 -999 216 23.8